sensor_id;sensor_type;location;lat;lon;timestamp;temperature;humidity
67275;DHT22;55463;52.324;5.122;2023-06-14T00:00:36;18.97;65.54
67275;DHT22;55463;52.324;5.122;2023-06-14T00:03:04;18.97;65.23
67275;DHT22;55463;52.324;5.122;2023-06-14T00:05:29;18.94;65.46
67275;DHT22;55463;52.324;5.122;2023-06-14T00:08:01;18.91;65.31
67275;DHT22;55463;52.324;5.122;2023-06-14T00:10:26;18.91;65.33
67275;DHT22;55463;52.324;5.122;2023-06-14T00:12:56;18.91;64.93
67275;DHT22;55463;52.324;5.122;2023-06-14T00:15:21;18.91;64.64
67275;DHT22;55463;52.324;5.122;2023-06-14T00:17:48;18.84;64.72
67275;DHT22;55463;52.324;5.122;2023-06-14T00:20:14;18.83;64.62
67275;DHT22;55463;52.324;5.122;2023-06-14T00:22:39;18.83;64.74
67275;DHT22;55463;52.324;5.122;2023-06-14T00:25:05;18.81;64.83
67275;DHT22;55463;52.324;5.122;2023-06-14T00:27:31;18.79;65.22
67275;DHT22;55463;52.324;5.122;2023-06-14T00:29:56;18.76;65.00
67275;DHT22;55463;52.324;5.122;2023-06-14T00:32:23;18.73;65.73
67275;DHT22;55463;52.324;5.122;2023-06-14T00:34:51;18.69;65.55
67275;DHT22;55463;52.324;5.122;2023-06-14T00:37:16;18.67;66.18
67275;DHT22;55463;52.324;5.122;2023-06-14T00:39:41;18.66;65.72
67275;DHT22;55463;52.324;5.122;2023-06-14T00:42:07;18.64;65.83
67275;DHT22;55463;52.324;5.122;2023-06-14T00:44:32;18.63;65.87
67275;DHT22;55463;52.324;5.122;2023-06-14T00:46:57;18.60;65.94
67275;DHT22;55463;52.324;5.122;2023-06-14T00:49:23;18.57;65.98
67275;DHT22;55463;52.324;5.122;2023-06-14T00:51:49;18.60;65.59
67275;DHT22;55463;52.324;5.122;2023-06-14T00:54:15;18.56;65.52
67275;DHT22;55463;52.324;5.122;2023-06-14T00:56:41;18.53;66.06
67275;DHT22;55463;52.324;5.122;2023-06-14T00:59:11;18.48;65.56
67275;DHT22;55463;52.324;5.122;2023-06-14T01:01:37;18.48;65.95
67275;DHT22;55463;52.324;5.122;2023-06-14T01:04:04;18.45;66.40
67275;DHT22;55463;52.324;5.122;2023-06-14T01:09:27;18.34;66.13
67275;DHT22;55463;52.324;5.122;2023-06-14T01:12:13;18.35;66.02
67275;DHT22;55463;52.324;5.122;2023-06-14T01:14:41;18.32;66.25
67275;DHT22;55463;52.324;5.122;2023-06-14T01:17:08;18.29;65.69
67275;DHT22;55463;52.324;5.122;2023-06-14T01:19:41;18.28;65.78
67275;DHT22;55463;52.324;5.122;2023-06-14T01:22:08;18.25;65.66
67275;DHT22;55463;52.324;5.122;2023-06-14T01:24:34;18.25;65.74
67275;DHT22;55463;52.324;5.122;2023-06-14T01:27:00;18.21;65.79
67275;DHT22;55463;52.324;5.122;2023-06-14T01:29:27;18.15;66.04
67275;DHT22;55463;52.324;5.122;2023-06-14T01:31:58;18.12;65.87
67275;DHT22;55463;52.324;5.122;2023-06-14T01:34:24;18.11;66.40
67275;DHT22;55463;52.324;5.122;2023-06-14T01:36:49;18.14;66.33
67275;DHT22;55463;52.324;5.122;2023-06-14T01:39:15;18.14;65.82
67275;DHT22;55463;52.324;5.122;2023-06-14T01:41:43;18.10;66.13
67275;DHT22;55463;52.324;5.122;2023-06-14T01:44:09;18.11;66.14
67275;DHT22;55463;52.324;5.122;2023-06-14T01:46:36;18.05;66.56
67275;DHT22;55463;52.324;5.122;2023-06-14T01:49:01;18.01;66.29
67275;DHT22;55463;52.324;5.122;2023-06-14T01:51:27;17.97;66.48
67275;DHT22;55463;52.324;5.122;2023-06-14T01:53:52;17.87;66.58
67275;DHT22;55463;52.324;5.122;2023-06-14T01:56:18;17.82;66.58
67275;DHT22;55463;52.324;5.122;2023-06-14T01:58:43;17.80;66.53
67275;DHT22;55463;52.324;5.122;2023-06-14T02:01:09;17.76;66.34
67275;DHT22;55463;52.324;5.122;2023-06-14T02:03:34;17.69;66.08
67275;DHT22;55463;52.324;5.122;2023-06-14T02:05:59;17.67;65.96
67275;DHT22;55463;52.324;5.122;2023-06-14T02:08:25;17.62;66.19
67275;DHT22;55463;52.324;5.122;2023-06-14T02:10:51;17.55;66.47
67275;DHT22;55463;52.324;5.122;2023-06-14T02:13:16;17.50;66.20
67275;DHT22;55463;52.324;5.122;2023-06-14T02:15:42;17.49;66.04
67275;DHT22;55463;52.324;5.122;2023-06-14T02:18:09;17.42;65.96
67275;DHT22;55463;52.324;5.122;2023-06-14T02:20:35;17.38;66.28
67275;DHT22;55463;52.324;5.122;2023-06-14T02:23:01;17.29;66.27
67275;DHT22;55463;52.324;5.122;2023-06-14T02:25:26;17.27;66.09
67275;DHT22;55463;52.324;5.122;2023-06-14T02:27:53;17.21;66.39
67275;DHT22;55463;52.324;5.122;2023-06-14T02:30:20;17.12;66.31
67275;DHT22;55463;52.324;5.122;2023-06-14T02:32:45;17.11;66.22
67275;DHT22;55463;52.324;5.122;2023-06-14T02:35:11;17.04;66.28
67275;DHT22;55463;52.324;5.122;2023-06-14T02:37:38;17.00;66.67
67275;DHT22;55463;52.324;5.122;2023-06-14T02:40:04;16.93;67.10
67275;DHT22;55463;52.324;5.122;2023-06-14T02:42:31;16.91;67.34
67275;DHT22;55463;52.324;5.122;2023-06-14T02:44:56;16.87;67.68
67275;DHT22;55463;52.324;5.122;2023-06-14T02:47:21;16.77;67.89
67275;DHT22;55463;52.324;5.122;2023-06-14T02:49:47;16.73;68.17
67275;DHT22;55463;52.324;5.122;2023-06-14T02:52:12;16.66;67.91
67275;DHT22;55463;52.324;5.122;2023-06-14T02:54:38;16.66;68.10
67275;DHT22;55463;52.324;5.122;2023-06-14T02:57:03;16.57;68.14
67275;DHT22;55463;52.324;5.122;2023-06-14T02:59:28;16.55;67.96
67275;DHT22;55463;52.324;5.122;2023-06-14T03:01:54;16.44;67.98
67275;DHT22;55463;52.324;5.122;2023-06-14T03:04:20;16.45;67.81
67275;DHT22;55463;52.324;5.122;2023-06-14T03:06:45;16.41;68.28
67275;DHT22;55463;52.324;5.122;2023-06-14T03:09:15;16.33;68.25
67275;DHT22;55463;52.324;5.122;2023-06-14T03:11:41;16.33;68.31
67275;DHT22;55463;52.324;5.122;2023-06-14T03:14:06;16.28;68.22
67275;DHT22;55463;52.324;5.122;2023-06-14T03:16:33;16.25;69.03
67275;DHT22;55463;52.324;5.122;2023-06-14T03:18:59;16.21;68.94
67275;DHT22;55463;52.324;5.122;2023-06-14T03:21:24;16.12;69.21
67275;DHT22;55463;52.324;5.122;2023-06-14T03:23:51;16.15;69.40
67275;DHT22;55463;52.324;5.122;2023-06-14T03:26:18;16.07;69.50
67275;DHT22;55463;52.324;5.122;2023-06-14T03:28:47;16.03;69.14
67275;DHT22;55463;52.324;5.122;2023-06-14T03:31:13;16.05;69.29
67275;DHT22;55463;52.324;5.122;2023-06-14T03:33:39;16.05;69.08
67275;DHT22;55463;52.324;5.122;2023-06-14T03:36:05;16.03;69.05
67275;DHT22;55463;52.324;5.122;2023-06-14T03:38:32;15.93;69.57
67275;DHT22;55463;52.324;5.122;2023-06-14T03:40:57;15.96;69.23
67275;DHT22;55463;52.324;5.122;2023-06-14T03:43:22;15.89;69.81
67275;DHT22;55463;52.324;5.122;2023-06-14T03:45:50;15.87;69.87
67275;DHT22;55463;52.324;5.122;2023-06-14T03:48:15;15.84;69.92
67275;DHT22;55463;52.324;5.122;2023-06-14T03:50:41;15.90;69.57
67275;DHT22;55463;52.324;5.122;2023-06-14T03:53:07;15.91;69.48
67275;DHT22;55463;52.324;5.122;2023-06-14T03:55:33;15.89;69.40
67275;DHT22;55463;52.324;5.122;2023-06-14T03:57:59;15.82;69.70
67275;DHT22;55463;52.324;5.122;2023-06-14T04:00:25;15.82;69.74
67275;DHT22;55463;52.324;5.122;2023-06-14T04:02:51;15.77;69.91
67275;DHT22;55463;52.324;5.122;2023-06-14T04:05:17;15.79;69.69
67275;DHT22;55463;52.324;5.122;2023-06-14T04:07:44;15.74;69.97
67275;DHT22;55463;52.324;5.122;2023-06-14T04:10:14;15.74;69.88
67275;DHT22;55463;52.324;5.122;2023-06-14T04:12:40;15.76;69.84
67275;DHT22;55463;52.324;5.122;2023-06-14T04:15:06;15.77;70.04
67275;DHT22;55463;52.324;5.122;2023-06-14T04:17:33;15.76;69.96
67275;DHT22;55463;52.324;5.122;2023-06-14T04:19:59;15.76;70.18
67275;DHT22;55463;52.324;5.122;2023-06-14T04:22:25;15.77;70.38
67275;DHT22;55463;52.324;5.122;2023-06-14T04:24:54;15.79;70.21
67275;DHT22;55463;52.324;5.122;2023-06-14T04:27:22;15.74;70.42
67275;DHT22;55463;52.324;5.122;2023-06-14T04:29:51;15.77;70.19
67275;DHT22;55463;52.324;5.122;2023-06-14T04:32:25;15.77;70.22
67275;DHT22;55463;52.324;5.122;2023-06-14T04:34:54;15.83;69.95
67275;DHT22;55463;52.324;5.122;2023-06-14T04:37:23;15.86;70.05
67275;DHT22;55463;52.324;5.122;2023-06-14T04:39:49;15.86;70.36
67275;DHT22;55463;52.324;5.122;2023-06-14T04:42:15;15.90;70.55
67275;DHT22;55463;52.324;5.122;2023-06-14T04:44:44;15.94;70.68
67275;DHT22;55463;52.324;5.122;2023-06-14T04:47:10;16.01;70.41
67275;DHT22;55463;52.324;5.122;2023-06-14T04:49:41;16.04;70.08
67275;DHT22;55463;52.324;5.122;2023-06-14T04:52:07;16.07;70.64
67275;DHT22;55463;52.324;5.122;2023-06-14T04:54:32;16.11;70.45
67275;DHT22;55463;52.324;5.122;2023-06-14T04:56:59;16.18;70.66
67275;DHT22;55463;52.324;5.122;2023-06-14T04:59:24;16.21;70.26
67275;DHT22;55463;52.324;5.122;2023-06-14T05:01:50;16.26;70.34
67275;DHT22;55463;52.324;5.122;2023-06-14T05:04:17;16.29;70.34
67275;DHT22;55463;52.324;5.122;2023-06-14T05:06:43;16.36;70.56
67275;DHT22;55463;52.324;5.122;2023-06-14T05:09:13;16.42;70.15
67275;DHT22;55463;52.324;5.122;2023-06-14T05:11:39;16.51;70.06
67275;DHT22;55463;52.324;5.122;2023-06-14T05:14:07;16.57;70.24
67275;DHT22;55463;52.324;5.122;2023-06-14T05:16:32;16.62;70.20
67275;DHT22;55463;52.324;5.122;2023-06-14T05:18:58;16.70;69.93
67275;DHT22;55463;52.324;5.122;2023-06-14T05:21:24;16.80;70.37
67275;DHT22;55463;52.324;5.122;2023-06-14T05:23:49;16.91;69.96
67275;DHT22;55463;52.324;5.122;2023-06-14T05:26:16;17.00;69.84
67275;DHT22;55463;52.324;5.122;2023-06-14T05:28:41;17.14;69.50
67275;DHT22;55463;52.324;5.122;2023-06-14T05:31:06;17.22;69.49
67275;DHT22;55463;52.324;5.122;2023-06-14T05:33:32;17.35;68.88
67275;DHT22;55463;52.324;5.122;2023-06-14T05:35:57;17.45;68.78
67275;DHT22;55463;52.324;5.122;2023-06-14T05:38:22;17.57;69.03
67275;DHT22;55463;52.324;5.122;2023-06-14T05:40:48;17.70;68.37
67275;DHT22;55463;52.324;5.122;2023-06-14T05:43:13;17.82;68.31
67275;DHT22;55463;52.324;5.122;2023-06-14T05:45:38;17.90;67.81
67275;DHT22;55463;52.324;5.122;2023-06-14T05:48:04;18.02;67.44
67275;DHT22;55463;52.324;5.122;2023-06-14T05:50:33;18.10;66.96
67275;DHT22;55463;52.324;5.122;2023-06-14T05:52:58;18.17;66.91
67275;DHT22;55463;52.324;5.122;2023-06-14T05:55:24;18.22;67.25
67275;DHT22;55463;52.324;5.122;2023-06-14T05:57:50;18.34;66.88
67275;DHT22;55463;52.324;5.122;2023-06-14T06:00:16;18.45;66.61
67275;DHT22;55463;52.324;5.122;2023-06-14T06:02:42;18.57;66.52
67275;DHT22;55463;52.324;5.122;2023-06-14T06:05:09;18.73;66.30
67275;DHT22;55463;52.324;5.122;2023-06-14T06:07:34;18.84;66.43
67275;DHT22;55463;52.324;5.122;2023-06-14T06:10:00;18.96;65.87
67275;DHT22;55463;52.324;5.122;2023-06-14T06:12:25;19.10;65.87
67275;DHT22;55463;52.324;5.122;2023-06-14T06:14:51;19.18;65.90
67275;DHT22;55463;52.324;5.122;2023-06-14T06:17:16;19.31;65.15
67275;DHT22;55463;52.324;5.122;2023-06-14T06:19:41;19.49;65.32
67275;DHT22;55463;52.324;5.122;2023-06-14T06:22:07;19.55;64.62
67275;DHT22;55463;52.324;5.122;2023-06-14T06:24:33;19.77;64.52
67275;DHT22;55463;52.324;5.122;2023-06-14T06:26:58;19.86;64.42
67275;DHT22;55463;52.324;5.122;2023-06-14T06:29:23;20.03;63.83
67275;DHT22;55463;52.324;5.122;2023-06-14T06:31:49;20.36;64.66
67275;DHT22;55463;52.324;5.122;2023-06-14T06:34:14;20.63;63.76
67275;DHT22;55463;52.324;5.122;2023-06-14T06:36:40;20.62;62.11
67275;DHT22;55463;52.324;5.122;2023-06-14T06:39:05;20.88;62.24
67275;DHT22;55463;52.324;5.122;2023-06-14T06:41:38;21.05;61.70
67275;DHT22;55463;52.324;5.122;2023-06-14T06:44:07;21.14;61.63
67275;DHT22;55463;52.324;5.122;2023-06-14T06:46:35;21.32;60.78
67275;DHT22;55463;52.324;5.122;2023-06-14T06:49:05;21.43;60.32
67275;DHT22;55463;52.324;5.122;2023-06-14T06:51:30;21.62;60.63
67275;DHT22;55463;52.324;5.122;2023-06-14T06:53:56;21.65;59.39
67275;DHT22;55463;52.324;5.122;2023-06-14T06:56:21;21.66;59.05
67275;DHT22;55463;52.324;5.122;2023-06-14T06:58:51;21.96;59.74
67275;DHT22;55463;52.324;5.122;2023-06-14T07:01:17;22.24;59.50
67275;DHT22;55463;52.324;5.122;2023-06-14T07:03:45;22.55;59.04
67275;DHT22;55463;52.324;5.122;2023-06-14T07:06:10;22.75;57.56
67275;DHT22;55463;52.324;5.122;2023-06-14T07:08:36;22.92;57.12
67275;DHT22;55463;52.324;5.122;2023-06-14T07:11:04;23.00;57.14
67275;DHT22;55463;52.324;5.122;2023-06-14T07:13:31;22.96;56.64
67275;DHT22;55463;52.324;5.122;2023-06-14T07:16:00;23.52;57.43
67275;DHT22;55463;52.324;5.122;2023-06-14T07:18:26;23.72;56.28
67275;DHT22;55463;52.324;5.122;2023-06-14T07:20:52;23.93;56.05
67275;DHT22;55463;52.324;5.122;2023-06-14T07:23:19;24.03;54.74
67275;DHT22;55463;52.324;5.122;2023-06-14T07:25:44;24.25;54.41
67275;DHT22;55463;52.324;5.122;2023-06-14T07:28:10;24.41;54.08
67275;DHT22;55463;52.324;5.122;2023-06-14T07:30:35;24.47;53.65
67275;DHT22;55463;52.324;5.122;2023-06-14T07:33:00;24.65;53.28
67275;DHT22;55463;52.324;5.122;2023-06-14T07:35:26;24.83;53.07
67275;DHT22;55463;52.324;5.122;2023-06-14T07:37:51;24.89;52.20
67275;DHT22;55463;52.324;5.122;2023-06-14T07:40:17;25.18;52.65
67275;DHT22;55463;52.324;5.122;2023-06-14T07:42:42;25.07;50.88
67275;DHT22;55463;52.324;5.122;2023-06-14T07:45:07;25.03;51.03
67275;DHT22;55463;52.324;5.122;2023-06-14T07:47:33;25.24;51.05
67275;DHT22;55463;52.324;5.122;2023-06-14T07:49:58;25.46;50.17
67275;DHT22;55463;52.324;5.122;2023-06-14T07:52:24;25.38;50.22
67275;DHT22;55463;52.324;5.122;2023-06-14T07:54:50;25.59;50.55
67275;DHT22;55463;52.324;5.122;2023-06-14T07:57:15;25.79;49.78
67275;DHT22;55463;52.324;5.122;2023-06-14T07:59:41;26.06;49.44
67275;DHT22;55463;52.324;5.122;2023-06-14T08:02:06;26.41;49.77
67275;DHT22;55463;52.324;5.122;2023-06-14T08:04:32;26.82;48.85
67275;DHT22;55463;52.324;5.122;2023-06-14T08:07:01;26.92;48.10
67275;DHT22;55463;52.324;5.122;2023-06-14T08:09:26;26.93;47.70
67275;DHT22;55463;52.324;5.122;2023-06-14T08:11:54;27.10;47.04
67275;DHT22;55463;52.324;5.122;2023-06-14T08:14:19;27.03;46.81
67275;DHT22;55463;52.324;5.122;2023-06-14T08:16:45;26.95;47.74
67275;DHT22;55463;52.324;5.122;2023-06-14T08:19:10;27.44;47.10
67275;DHT22;55463;52.324;5.122;2023-06-14T08:21:35;27.72;46.74
67275;DHT22;55463;52.324;5.122;2023-06-14T08:24:02;27.68;45.32
67275;DHT22;55463;52.324;5.122;2023-06-14T08:26:27;27.83;46.47
67275;DHT22;55463;52.324;5.122;2023-06-14T08:28:57;28.10;45.65
67275;DHT22;55463;52.324;5.122;2023-06-14T08:31:23;28.18;45.57
67275;DHT22;55463;52.324;5.122;2023-06-14T08:33:49;28.27;44.94
67275;DHT22;55463;52.324;5.122;2023-06-14T08:36:14;28.37;44.10
67275;DHT22;55463;52.324;5.122;2023-06-14T08:38:40;28.85;45.32
67275;DHT22;55463;52.324;5.122;2023-06-14T08:41:05;28.98;44.44
67275;DHT22;55463;52.324;5.122;2023-06-14T08:43:32;29.50;44.18
67275;DHT22;55463;52.324;5.122;2023-06-14T08:46:03;29.59;43.80
67275;DHT22;55463;52.324;5.122;2023-06-14T08:48:29;29.54;42.25
67275;DHT22;55463;52.324;5.122;2023-06-14T08:50:55;29.53;41.78
67275;DHT22;55463;52.324;5.122;2023-06-14T08:53:28;30.06;42.67
67275;DHT22;55463;52.324;5.122;2023-06-14T08:55:54;30.02;42.43
67275;DHT22;55463;52.324;5.122;2023-06-14T08:58:21;29.82;40.82
67275;DHT22;55463;52.324;5.122;2023-06-14T09:00:49;30.00;41.36
67275;DHT22;55463;52.324;5.122;2023-06-14T09:03:17;30.38;42.54
67275;DHT22;55463;52.324;5.122;2023-06-14T09:05:46;30.24;40.75
67275;DHT22;55463;52.324;5.122;2023-06-14T09:08:12;30.76;41.13
67275;DHT22;55463;52.324;5.122;2023-06-14T09:10:39;30.88;41.14
67275;DHT22;55463;52.324;5.122;2023-06-14T09:13:11;31.12;40.35
67275;DHT22;55463;52.324;5.122;2023-06-14T09:15:37;30.92;39.75
67275;DHT22;55463;52.324;5.122;2023-06-14T09:18:03;30.49;39.51
67275;DHT22;55463;52.324;5.122;2023-06-14T09:20:30;30.47;38.60
67275;DHT22;55463;52.324;5.122;2023-06-14T09:22:56;31.17;40.49
67275;DHT22;55463;52.324;5.122;2023-06-14T09:25:21;30.83;38.97
67275;DHT22;55463;52.324;5.122;2023-06-14T09:27:48;31.33;38.64
67275;DHT22;55463;52.324;5.122;2023-06-14T09:30:13;31.15;38.44
67275;DHT22;55463;52.324;5.122;2023-06-14T09:32:39;31.30;39.30
67275;DHT22;55463;52.324;5.122;2023-06-14T09:35:09;31.55;39.96
67275;DHT22;55463;52.324;5.122;2023-06-14T09:37:35;31.34;39.20
67275;DHT22;55463;52.324;5.122;2023-06-14T09:40:00;31.78;39.65
67275;DHT22;55463;52.324;5.122;2023-06-14T09:42:26;32.13;39.77
67275;DHT22;55463;52.324;5.122;2023-06-14T09:44:54;31.52;37.36
67275;DHT22;55463;52.324;5.122;2023-06-14T09:47:20;31.75;39.70
67275;DHT22;55463;52.324;5.122;2023-06-14T09:49:47;32.16;39.04
67275;DHT22;55463;52.324;5.122;2023-06-14T09:52:19;32.01;38.49
67275;DHT22;55463;52.324;5.122;2023-06-14T09:54:46;31.75;38.96
67275;DHT22;55463;52.324;5.122;2023-06-14T09:57:13;31.78;36.78
67275;DHT22;55463;52.324;5.122;2023-06-14T09:59:44;31.60;38.60
67275;DHT22;55463;52.324;5.122;2023-06-14T10:02:35;31.67;37.24
67275;DHT22;55463;52.324;5.122;2023-06-14T10:05:07;31.89;37.66
67275;DHT22;55463;52.324;5.122;2023-06-14T10:07:48;32.01;37.45
67275;DHT22;55463;52.324;5.122;2023-06-14T10:10:17;31.86;37.61
67275;DHT22;55463;52.324;5.122;2023-06-14T10:12:43;31.74;36.83
67275;DHT22;55463;52.324;5.122;2023-06-14T10:15:10;31.84;36.35
67275;DHT22;55463;52.324;5.122;2023-06-14T10:17:45;32.01;36.95
67275;DHT22;55463;52.324;5.122;2023-06-14T10:22:57;32.60;37.43
67275;DHT22;55463;52.324;5.122;2023-06-14T10:25:30;31.37;35.64
67275;DHT22;55463;52.324;5.122;2023-06-14T10:30:37;32.10;36.80
67275;DHT22;55463;52.324;5.122;2023-06-14T10:33:06;32.01;37.50
67275;DHT22;55463;52.324;5.122;2023-06-14T10:35:32;32.16;36.92
67275;DHT22;55463;52.324;5.122;2023-06-14T10:38:11;32.45;36.29
67275;DHT22;55463;52.324;5.122;2023-06-14T10:40:38;32.26;37.40
67275;DHT22;55463;52.324;5.122;2023-06-14T10:43:23;32.30;36.78
67275;DHT22;55463;52.324;5.122;2023-06-14T10:46:15;32.32;35.70
67275;DHT22;55463;52.324;5.122;2023-06-14T10:48:42;32.24;35.10
67275;DHT22;55463;52.324;5.122;2023-06-14T10:51:29;32.74;35.65
67275;DHT22;55463;52.324;5.122;2023-06-14T10:53:56;32.64;35.37
67275;DHT22;55463;52.324;5.122;2023-06-14T10:56:27;32.40;34.57
67275;DHT22;55463;52.324;5.122;2023-06-14T10:58:54;32.68;35.72
67275;DHT22;55463;52.324;5.122;2023-06-14T11:01:41;32.47;33.96
67275;DHT22;55463;52.324;5.122;2023-06-14T11:04:12;32.58;35.66
67275;DHT22;55463;52.324;5.122;2023-06-14T11:06:48;32.91;34.61
67275;DHT22;55463;52.324;5.122;2023-06-14T11:11:45;32.79;35.21
67275;DHT22;55463;52.324;5.122;2023-06-14T11:14:11;32.44;35.47
67275;DHT22;55463;52.324;5.122;2023-06-14T11:16:37;32.70;35.74
67275;DHT22;55463;52.324;5.122;2023-06-14T11:19:02;32.58;35.02
67275;DHT22;55463;52.324;5.122;2023-06-14T11:21:34;32.94;34.70
67275;DHT22;55463;52.324;5.122;2023-06-14T11:24:10;33.11;34.96
67275;DHT22;55463;52.324;5.122;2023-06-14T11:26:37;33.54;36.43
67275;DHT22;55463;52.324;5.122;2023-06-14T11:29:03;33.15;35.19
67275;DHT22;55463;52.324;5.122;2023-06-14T11:31:29;33.23;34.88
67275;DHT22;55463;52.324;5.122;2023-06-14T11:33:55;33.56;36.47
67275;DHT22;55463;52.324;5.122;2023-06-14T11:36:22;33.57;35.12
67275;DHT22;55463;52.324;5.122;2023-06-14T11:38:47;33.68;34.56
67275;DHT22;55463;52.324;5.122;2023-06-14T11:41:13;32.91;34.92
67275;DHT22;55463;52.324;5.122;2023-06-14T11:43:42;32.99;34.62
67275;DHT22;55463;52.324;5.122;2023-06-14T11:46:13;33.33;34.10
67275;DHT22;55463;52.324;5.122;2023-06-14T11:48:41;33.67;35.13
67275;DHT22;55463;52.324;5.122;2023-06-14T11:51:07;33.08;35.87
67275;DHT22;55463;52.324;5.122;2023-06-14T11:53:33;33.70;36.34
67275;DHT22;55463;52.324;5.122;2023-06-14T11:55:59;33.25;34.56
67275;DHT22;55463;52.324;5.122;2023-06-14T11:58:25;33.26;35.06
67275;DHT22;55463;52.324;5.122;2023-06-14T12:00:52;32.34;35.12
67275;DHT22;55463;52.324;5.122;2023-06-14T12:03:22;32.91;36.06
67275;DHT22;55463;52.324;5.122;2023-06-14T12:05:48;32.78;35.02
67275;DHT22;55463;52.324;5.122;2023-06-14T12:08:13;32.91;35.26
67275;DHT22;55463;52.324;5.122;2023-06-14T12:10:42;32.53;36.04
67275;DHT22;55463;52.324;5.122;2023-06-14T12:13:09;32.77;35.20
67275;DHT22;55463;52.324;5.122;2023-06-14T12:15:34;32.98;35.87
67275;DHT22;55463;52.324;5.122;2023-06-14T12:17:59;32.84;35.72
67275;DHT22;55463;52.324;5.122;2023-06-14T12:20:32;32.13;36.15
67275;DHT22;55463;52.324;5.122;2023-06-14T12:23:03;32.44;35.02
67275;DHT22;55463;52.324;5.122;2023-06-14T12:25:37;32.29;35.30
67275;DHT22;55463;52.324;5.122;2023-06-14T12:28:08;31.96;35.55
67275;DHT22;55463;52.324;5.122;2023-06-14T12:30:35;31.96;36.48
67275;DHT22;55463;52.324;5.122;2023-06-14T12:33:02;32.04;36.94
67275;DHT22;55463;52.324;5.122;2023-06-14T12:35:27;32.57;35.75
67275;DHT22;55463;52.324;5.122;2023-06-14T12:37:53;32.36;36.10
67275;DHT22;55463;52.324;5.122;2023-06-14T12:40:18;32.15;35.67
67275;DHT22;55463;52.324;5.122;2023-06-14T12:42:44;32.13;36.46
67275;DHT22;55463;52.324;5.122;2023-06-14T12:45:12;32.33;37.01
67275;DHT22;55463;52.324;5.122;2023-06-14T12:47:37;32.78;37.59
67275;DHT22;55463;52.324;5.122;2023-06-14T12:50:03;32.75;35.32
67275;DHT22;55463;52.324;5.122;2023-06-14T12:52:29;33.02;34.45
67275;DHT22;55463;52.324;5.122;2023-06-14T12:54:55;32.86;35.13
67275;DHT22;55463;52.324;5.122;2023-06-14T12:57:23;32.56;34.24
67275;DHT22;55463;52.324;5.122;2023-06-14T12:59:48;32.78;35.60
67275;DHT22;55463;52.324;5.122;2023-06-14T13:02:17;33.19;35.06
67275;DHT22;55463;52.324;5.122;2023-06-14T13:04:43;32.60;35.83
67275;DHT22;55463;52.324;5.122;2023-06-14T13:07:08;32.91;36.05
67275;DHT22;55463;52.324;5.122;2023-06-14T13:09:35;32.50;35.61
67275;DHT22;55463;52.324;5.122;2023-06-14T13:12:01;32.72;35.66
67275;DHT22;55463;52.324;5.122;2023-06-14T13:14:26;32.58;34.37
67275;DHT22;55463;52.324;5.122;2023-06-14T13:16:52;32.41;35.26
67275;DHT22;55463;52.324;5.122;2023-06-14T13:19:18;32.72;36.40
67275;DHT22;55463;52.324;5.122;2023-06-14T13:21:43;32.64;34.66
67275;DHT22;55463;52.324;5.122;2023-06-14T13:24:08;32.58;34.79
67275;DHT22;55463;52.324;5.122;2023-06-14T13:26:34;32.88;35.30
67275;DHT22;55463;52.324;5.122;2023-06-14T13:28:59;32.82;35.22
67275;DHT22;55463;52.324;5.122;2023-06-14T13:31:25;33.13;34.58
67275;DHT22;55463;52.324;5.122;2023-06-14T13:33:50;33.11;33.02
67275;DHT22;55463;52.324;5.122;2023-06-14T13:36:16;33.09;33.16
67275;DHT22;55463;52.324;5.122;2023-06-14T13:38:41;33.01;33.81
67275;DHT22;55463;52.324;5.122;2023-06-14T13:41:07;33.11;34.59
67275;DHT22;55463;52.324;5.122;2023-06-14T13:43:32;33.43;34.34
67275;DHT22;55463;52.324;5.122;2023-06-14T13:45:57;32.86;34.17
67275;DHT22;55463;52.324;5.122;2023-06-14T13:48:23;32.91;35.07
67275;DHT22;55463;52.324;5.122;2023-06-14T13:50:49;33.08;35.81
67275;DHT22;55463;52.324;5.122;2023-06-14T13:53:14;32.85;34.45
67275;DHT22;55463;52.324;5.122;2023-06-14T13:55:39;33.01;34.62
67275;DHT22;55463;52.324;5.122;2023-06-14T13:58:05;32.88;34.08
67275;DHT22;55463;52.324;5.122;2023-06-14T14:00:30;32.67;34.62
67275;DHT22;55463;52.324;5.122;2023-06-14T14:02:55;32.40;35.35
67275;DHT22;55463;52.324;5.122;2023-06-14T14:05:22;32.47;34.21
67275;DHT22;55463;52.324;5.122;2023-06-14T14:07:53;32.02;34.88
67275;DHT22;55463;52.324;5.122;2023-06-14T14:10:19;32.40;33.55
67275;DHT22;55463;52.324;5.122;2023-06-14T14:12:45;32.92;34.21
67275;DHT22;55463;52.324;5.122;2023-06-14T14:15:11;32.36;34.62
67275;DHT22;55463;52.324;5.122;2023-06-14T14:17:38;31.75;35.74
67275;DHT22;55463;52.324;5.122;2023-06-14T14:20:04;32.10;35.75
67275;DHT22;55463;52.324;5.122;2023-06-14T14:22:30;31.26;34.97
67275;DHT22;55463;52.324;5.122;2023-06-14T14:24:55;31.86;35.39
67275;DHT22;55463;52.324;5.122;2023-06-14T14:27:21;31.88;35.21
67275;DHT22;55463;52.324;5.122;2023-06-14T14:29:46;32.06;36.13
67275;DHT22;55463;52.324;5.122;2023-06-14T14:32:11;32.04;34.89
67275;DHT22;55463;52.324;5.122;2023-06-14T14:34:39;31.79;34.91
67275;DHT22;55463;52.324;5.122;2023-06-14T14:37:05;31.55;35.56
67275;DHT22;55463;52.324;5.122;2023-06-14T14:39:30;31.58;35.52
67275;DHT22;55463;52.324;5.122;2023-06-14T14:41:55;31.92;35.04
67275;DHT22;55463;52.324;5.122;2023-06-14T14:44:21;31.79;35.98
67275;DHT22;55463;52.324;5.122;2023-06-14T14:46:46;31.90;36.08
67275;DHT22;55463;52.324;5.122;2023-06-14T14:49:12;32.27;35.96
67275;DHT22;55463;52.324;5.122;2023-06-14T14:51:37;31.90;35.56
67275;DHT22;55463;52.324;5.122;2023-06-14T14:54:03;31.95;35.34
67275;DHT22;55463;52.324;5.122;2023-06-14T14:56:29;31.67;34.86
67275;DHT22;55463;52.324;5.122;2023-06-14T14:58:55;31.71;35.63
67275;DHT22;55463;52.324;5.122;2023-06-14T15:01:20;31.84;35.21
67275;DHT22;55463;52.324;5.122;2023-06-14T15:03:46;31.85;35.43
67275;DHT22;55463;52.324;5.122;2023-06-14T15:06:11;32.15;35.41
67275;DHT22;55463;52.324;5.122;2023-06-14T15:08:36;31.79;35.19
67275;DHT22;55463;52.324;5.122;2023-06-14T15:11:02;31.02;35.60
67275;DHT22;55463;52.324;5.122;2023-06-14T15:13:28;30.85;34.80
67275;DHT22;55463;52.324;5.122;2023-06-14T15:15:53;30.82;35.17
67275;DHT22;55463;52.324;5.122;2023-06-14T15:18:18;31.04;36.42
67275;DHT22;55463;52.324;5.122;2023-06-14T15:20:46;31.26;37.00
67275;DHT22;55463;52.324;5.122;2023-06-14T15:23:11;31.19;36.50
67275;DHT22;55463;52.324;5.122;2023-06-14T15:25:36;31.35;36.36
67275;DHT22;55463;52.324;5.122;2023-06-14T15:28:02;31.37;36.13
67275;DHT22;55463;52.324;5.122;2023-06-14T15:30:31;31.67;36.28
67275;DHT22;55463;52.324;5.122;2023-06-14T15:32:57;31.47;36.13
67275;DHT22;55463;52.324;5.122;2023-06-14T15:35:23;31.55;36.75
67275;DHT22;55463;52.324;5.122;2023-06-14T15:37:48;31.51;36.44